sensor_id;sensor_type;location;lat;lon;timestamp;temperature;humidity
43991;DHT22;29654;50.784;20.604;2022-10-17T00:00:43;16.90;53.40
43991;DHT22;29654;50.784;20.604;2022-10-17T00:05:48;16.80;53.40
43991;DHT22;29654;50.784;20.604;2022-10-17T00:10:56;16.80;53.60
43991;DHT22;29654;50.784;20.604;2022-10-17T00:16:00;16.70;53.80
43991;DHT22;29654;50.784;20.604;2022-10-17T00:21:14;16.70;53.60
43991;DHT22;29654;50.784;20.604;2022-10-17T00:26:17;16.70;54.10
43991;DHT22;29654;50.784;20.604;2022-10-17T00:31:22;16.60;53.80
43991;DHT22;29654;50.784;20.604;2022-10-17T00:36:28;16.60;54.00
43991;DHT22;29654;50.784;20.604;2022-10-17T00:41:33;16.60;53.90
43991;DHT22;29654;50.784;20.604;2022-10-17T00:46:39;16.60;53.90
43991;DHT22;29654;50.784;20.604;2022-10-17T00:51:49;16.60;53.80
43991;DHT22;29654;50.784;20.604;2022-10-17T00:56:54;16.50;54.10
43991;DHT22;29654;50.784;20.604;2022-10-17T01:02:04;16.50;54.00
43991;DHT22;29654;50.784;20.604;2022-10-17T01:07:09;16.50;54.00
43991;DHT22;29654;50.784;20.604;2022-10-17T01:12:19;16.40;54.10
43991;DHT22;29654;50.784;20.604;2022-10-17T01:17:30;16.40;54.10
43991;DHT22;29654;50.784;20.604;2022-10-17T01:22:44;16.40;54.10
43991;DHT22;29654;50.784;20.604;2022-10-17T01:28:05;16.30;54.00
43991;DHT22;29654;50.784;20.604;2022-10-17T01:33:27;16.30;54.20
43991;DHT22;29654;50.784;20.604;2022-10-17T01:38:43;16.30;54.30
43991;DHT22;29654;50.784;20.604;2022-10-17T01:43:54;16.20;54.10
43991;DHT22;29654;50.784;20.604;2022-10-17T01:49:07;16.20;54.00
43991;DHT22;29654;50.784;20.604;2022-10-17T01:54:15;16.20;54.00
43991;DHT22;29654;50.784;20.604;2022-10-17T01:59:26;16.10;53.90
43991;DHT22;29654;50.784;20.604;2022-10-17T02:04:33;16.00;53.90
43991;DHT22;29654;50.784;20.604;2022-10-17T02:09:38;16.00;54.00
43991;DHT22;29654;50.784;20.604;2022-10-17T02:14:51;15.90;53.80
43991;DHT22;29654;50.784;20.604;2022-10-17T02:20:12;15.90;54.30
43991;DHT22;29654;50.784;20.604;2022-10-17T02:25:26;15.90;54.30
43991;DHT22;29654;50.784;20.604;2022-10-17T02:30:36;15.90;54.20
43991;DHT22;29654;50.784;20.604;2022-10-17T02:35:45;15.80;54.00
43991;DHT22;29654;50.784;20.604;2022-10-17T02:40:52;15.80;54.00
43991;DHT22;29654;50.784;20.604;2022-10-17T02:45:56;15.70;53.90
43991;DHT22;29654;50.784;20.604;2022-10-17T02:51:06;15.70;54.00
43991;DHT22;29654;50.784;20.604;2022-10-17T02:56:16;15.60;54.00
43991;DHT22;29654;50.784;20.604;2022-10-17T03:01:21;15.60;54.00
43991;DHT22;29654;50.784;20.604;2022-10-17T03:06:27;15.50;53.90
43991;DHT22;29654;50.784;20.604;2022-10-17T03:11:34;15.40;54.00
43991;DHT22;29654;50.784;20.604;2022-10-17T03:16:39;15.40;53.90
43991;DHT22;29654;50.784;20.604;2022-10-17T03:21:43;15.40;54.20
43991;DHT22;29654;50.784;20.604;2022-10-17T03:26:51;15.30;54.10
43991;DHT22;29654;50.784;20.604;2022-10-17T03:31:54;15.30;54.50
43991;DHT22;29654;50.784;20.604;2022-10-17T03:36:59;15.30;54.60
43991;DHT22;29654;50.784;20.604;2022-10-17T03:42:04;15.30;54.60
43991;DHT22;29654;50.784;20.604;2022-10-17T03:47:07;15.30;54.50
43991;DHT22;29654;50.784;20.604;2022-10-17T03:52:22;15.30;54.30
43991;DHT22;29654;50.784;20.604;2022-10-17T03:57:25;15.30;54.60
43991;DHT22;29654;50.784;20.604;2022-10-17T04:02:29;15.30;54.30
43991;DHT22;29654;50.784;20.604;2022-10-17T04:07:35;15.30;54.40
43991;DHT22;29654;50.784;20.604;2022-10-17T04:12:39;15.20;54.50
43991;DHT22;29654;50.784;20.604;2022-10-17T04:17:43;15.20;54.50
43991;DHT22;29654;50.784;20.604;2022-10-17T04:22:51;15.20;54.50
43991;DHT22;29654;50.784;20.604;2022-10-17T04:27:55;15.20;54.60
43991;DHT22;29654;50.784;20.604;2022-10-17T04:32:58;15.20;54.50
43991;DHT22;29654;50.784;20.604;2022-10-17T04:38:06;15.20;54.40
43991;DHT22;29654;50.784;20.604;2022-10-17T04:43:10;15.20;54.50
43991;DHT22;29654;50.784;20.604;2022-10-17T04:48:13;15.20;54.70
43991;DHT22;29654;50.784;20.604;2022-10-17T04:53:18;15.20;54.70
43991;DHT22;29654;50.784;20.604;2022-10-17T04:58:21;15.10;54.60
43991;DHT22;29654;50.784;20.604;2022-10-17T05:03:25;15.10;54.60
43991;DHT22;29654;50.784;20.604;2022-10-17T05:08:30;15.00;54.50
43991;DHT22;29654;50.784;20.604;2022-10-17T05:13:34;15.00;54.60
43991;DHT22;29654;50.784;20.604;2022-10-17T05:18:37;15.00;54.80
43991;DHT22;29654;50.784;20.604;2022-10-17T05:23:45;15.00;55.00
43991;DHT22;29654;50.784;20.604;2022-10-17T05:28:48;15.00;55.40
43991;DHT22;29654;50.784;20.604;2022-10-17T05:33:55;15.00;55.40
43991;DHT22;29654;50.784;20.604;2022-10-17T05:39:04;15.00;55.60
43991;DHT22;29654;50.784;20.604;2022-10-17T05:44:09;15.00;55.70
43991;DHT22;29654;50.784;20.604;2022-10-17T05:49:15;15.10;56.00
43991;DHT22;29654;50.784;20.604;2022-10-17T05:54:22;15.10;56.10
43991;DHT22;29654;50.784;20.604;2022-10-17T05:59:26;15.20;56.30
43991;DHT22;29654;50.784;20.604;2022-10-17T06:04:40;15.20;56.20
43991;DHT22;29654;50.784;20.604;2022-10-17T06:09:48;15.30;56.30
43991;DHT22;29654;50.784;20.604;2022-10-17T06:14:51;15.50;56.90
43991;DHT22;29654;50.784;20.604;2022-10-17T06:19:55;15.60;56.90
43991;DHT22;29654;50.784;20.604;2022-10-17T06:25:00;15.80;56.90
43991;DHT22;29654;50.784;20.604;2022-10-17T06:30:04;15.90;57.10
43991;DHT22;29654;50.784;20.604;2022-10-17T06:35:08;16.10;57.00
43991;DHT22;29654;50.784;20.604;2022-10-17T06:40:13;16.20;57.10
43991;DHT22;29654;50.784;20.604;2022-10-17T06:45:17;16.40;57.10
43991;DHT22;29654;50.784;20.604;2022-10-17T06:50:31;16.60;57.10
43991;DHT22;29654;50.784;20.604;2022-10-17T06:55:55;16.80;57.00
43991;DHT22;29654;50.784;20.604;2022-10-17T07:01:30;17.00;57.20
43991;DHT22;29654;50.784;20.604;2022-10-17T07:06:35;17.20;57.30
43991;DHT22;29654;50.784;20.604;2022-10-17T07:11:46;17.40;57.20
43991;DHT22;29654;50.784;20.604;2022-10-17T07:16:52;17.60;57.30
43991;DHT22;29654;50.784;20.604;2022-10-17T07:21:59;17.80;57.40
43991;DHT22;29654;50.784;20.604;2022-10-17T07:27:04;18.10;57.40
43991;DHT22;29654;50.784;20.604;2022-10-17T07:32:07;18.40;57.30
43991;DHT22;29654;50.784;20.604;2022-10-17T07:37:10;18.60;57.10
43991;DHT22;29654;50.784;20.604;2022-10-17T07:42:19;18.90;57.10
43991;DHT22;29654;50.784;20.604;2022-10-17T07:47:23;19.10;57.00
43991;DHT22;29654;50.784;20.604;2022-10-17T07:52:27;19.30;56.70
43991;DHT22;29654;50.784;20.604;2022-10-17T07:57:32;19.60;56.50
43991;DHT22;29654;50.784;20.604;2022-10-17T08:02:35;19.90;56.50
43991;DHT22;29654;50.784;20.604;2022-10-17T08:07:38;20.10;56.30
43991;DHT22;29654;50.784;20.604;2022-10-17T08:12:43;20.40;56.20
43991;DHT22;29654;50.784;20.604;2022-10-17T08:17:48;20.70;56.10
43991;DHT22;29654;50.784;20.604;2022-10-17T08:22:54;20.90;55.90
43991;DHT22;29654;50.784;20.604;2022-10-17T08:28:04;21.20;55.60
43991;DHT22;29654;50.784;20.604;2022-10-17T08:33:09;21.50;55.30
43991;DHT22;29654;50.784;20.604;2022-10-17T08:38:12;21.70;55.10
43991;DHT22;29654;50.784;20.604;2022-10-17T08:43:35;22.00;54.90
43991;DHT22;29654;50.784;20.604;2022-10-17T08:48:53;22.30;54.80
43991;DHT22;29654;50.784;20.604;2022-10-17T08:54:08;22.50;54.50
43991;DHT22;29654;50.784;20.604;2022-10-17T08:59:19;22.80;53.90
43991;DHT22;29654;50.784;20.604;2022-10-17T09:04:45;23.00;53.70
43991;DHT22;29654;50.784;20.604;2022-10-17T09:10:03;23.30;53.20
43991;DHT22;29654;50.784;20.604;2022-10-17T09:15:43;23.50;52.80
43991;DHT22;29654;50.784;20.604;2022-10-17T09:20:59;23.70;52.30
43991;DHT22;29654;50.784;20.604;2022-10-17T09:26:09;23.90;52.30
43991;DHT22;29654;50.784;20.604;2022-10-17T09:31:24;24.20;51.80
43991;DHT22;29654;50.784;20.604;2022-10-17T09:36:33;24.40;51.60
43991;DHT22;29654;50.784;20.604;2022-10-17T09:41:43;24.60;51.50
43991;DHT22;29654;50.784;20.604;2022-10-17T09:47:23;24.80;50.90
43991;DHT22;29654;50.784;20.604;2022-10-17T09:52:34;25.00;50.10
43991;DHT22;29654;50.784;20.604;2022-10-17T09:57:55;25.20;50.40
43991;DHT22;29654;50.784;20.604;2022-10-17T10:03:17;25.30;49.40
43991;DHT22;29654;50.784;20.604;2022-10-17T10:08:32;25.50;49.10
43991;DHT22;29654;50.784;20.604;2022-10-17T10:13:39;25.60;48.90
43991;DHT22;29654;50.784;20.604;2022-10-17T10:18:53;25.80;49.30
43991;DHT22;29654;50.784;20.604;2022-10-17T10:24:10;25.90;48.40
43991;DHT22;29654;50.784;20.604;2022-10-17T10:29:23;26.10;48.20
43991;DHT22;29654;50.784;20.604;2022-10-17T10:34:46;26.20;48.30
43991;DHT22;29654;50.784;20.604;2022-10-17T10:40:00;26.30;47.30
43991;DHT22;29654;50.784;20.604;2022-10-17T10:45:18;26.40;47.80
43991;DHT22;29654;50.784;20.604;2022-10-17T10:50:34;26.40;47.00
43991;DHT22;29654;50.784;20.604;2022-10-17T10:55:51;26.50;46.90
43991;DHT22;29654;50.784;20.604;2022-10-17T11:00:59;26.60;47.00
43991;DHT22;29654;50.784;20.604;2022-10-17T11:06:18;26.70;47.00
43991;DHT22;29654;50.784;20.604;2022-10-17T11:11:28;26.80;46.30
43991;DHT22;29654;50.784;20.604;2022-10-17T11:16:40;26.80;46.70
43991;DHT22;29654;50.784;20.604;2022-10-17T11:22:02;26.90;46.70
43991;DHT22;29654;50.784;20.604;2022-10-17T11:27:11;27.00;45.90
43991;DHT22;29654;50.784;20.604;2022-10-17T11:32:20;27.00;46.80
43991;DHT22;29654;50.784;20.604;2022-10-17T11:37:43;27.20;46.00
43991;DHT22;29654;50.784;20.604;2022-10-17T11:43:00;27.30;45.40
43991;DHT22;29654;50.784;20.604;2022-10-17T11:48:15;27.30;45.50
43991;DHT22;29654;50.784;20.604;2022-10-17T11:53:28;27.30;45.60
43991;DHT22;29654;50.784;20.604;2022-10-17T11:58:37;27.40;45.90
43991;DHT22;29654;50.784;20.604;2022-10-17T12:03:57;27.40;45.80
43991;DHT22;29654;50.784;20.604;2022-10-17T12:09:24;27.40;45.20
43991;DHT22;29654;50.784;20.604;2022-10-17T12:14:43;27.50;45.00
43991;DHT22;29654;50.784;20.604;2022-10-17T12:19:50;27.40;45.60
43991;DHT22;29654;50.784;20.604;2022-10-17T12:25:00;27.40;45.60
43991;DHT22;29654;50.784;20.604;2022-10-17T12:30:15;27.50;44.90
43991;DHT22;29654;50.784;20.604;2022-10-17T12:35:24;27.50;45.20
43991;DHT22;29654;50.784;20.604;2022-10-17T12:40:51;27.50;45.50
43991;DHT22;29654;50.784;20.604;2022-10-17T12:46:10;27.60;44.60
43991;DHT22;29654;50.784;20.604;2022-10-17T12:51:18;27.60;44.90
43991;DHT22;29654;50.784;20.604;2022-10-17T12:56:34;27.60;45.10
43991;DHT22;29654;50.784;20.604;2022-10-17T13:01:43;27.60;44.30
43991;DHT22;29654;50.784;20.604;2022-10-17T13:06:52;27.60;44.60
43991;DHT22;29654;50.784;20.604;2022-10-17T13:12:03;27.60;44.80
43991;DHT22;29654;50.784;20.604;2022-10-17T13:17:21;27.60;44.50
43991;DHT22;29654;50.784;20.604;2022-10-17T13:22:29;27.60;44.40
43991;DHT22;29654;50.784;20.604;2022-10-17T13:27:37;27.60;44.80
43991;DHT22;29654;50.784;20.604;2022-10-17T13:32:43;27.70;44.40
43991;DHT22;29654;50.784;20.604;2022-10-17T13:37:49;27.70;44.60
43991;DHT22;29654;50.784;20.604;2022-10-17T13:43:00;27.60;44.60
43991;DHT22;29654;50.784;20.604;2022-10-17T13:48:06;27.70;44.30
43991;DHT22;29654;50.784;20.604;2022-10-17T13:53:25;27.70;44.40
43991;DHT22;29654;50.784;20.604;2022-10-17T13:58:40;27.70;44.00
43991;DHT22;29654;50.784;20.604;2022-10-17T14:03:46;27.80;43.70
43991;DHT22;29654;50.784;20.604;2022-10-17T14:08:53;27.60;44.10
43991;DHT22;29654;50.784;20.604;2022-10-17T14:14:04;27.60;44.00
43991;DHT22;29654;50.784;20.604;2022-10-17T14:19:24;27.50;43.80
43991;DHT22;29654;50.784;20.604;2022-10-17T14:24:34;27.50;43.90
43991;DHT22;29654;50.784;20.604;2022-10-17T14:29:54;27.40;43.80
43991;DHT22;29654;50.784;20.604;2022-10-17T14:35:04;27.40;43.70
43991;DHT22;29654;50.784;20.604;2022-10-17T14:40:15;27.30;44.10
43991;DHT22;29654;50.784;20.604;2022-10-17T14:45:28;27.20;43.90
43991;DHT22;29654;50.784;20.604;2022-10-17T14:50:33;27.20;44.20
43991;DHT22;29654;50.784;20.604;2022-10-17T14:55:39;27.10;44.80
43991;DHT22;29654;50.784;20.604;2022-10-17T15:01:00;27.00;44.80
43991;DHT22;29654;50.784;20.604;2022-10-17T15:06:16;26.80;44.90
43991;DHT22;29654;50.784;20.604;2022-10-17T15:11:23;26.70;45.00
43991;DHT22;29654;50.784;20.604;2022-10-17T15:16:32;26.60;45.10
43991;DHT22;29654;50.784;20.604;2022-10-17T15:21:39;26.40;45.30
43991;DHT22;29654;50.784;20.604;2022-10-17T15:26:45;26.20;45.40
43991;DHT22;29654;50.784;20.604;2022-10-17T15:31:52;26.00;45.50
43991;DHT22;29654;50.784;20.604;2022-10-17T15:36:56;25.80;45.80
43991;DHT22;29654;50.784;20.604;2022-10-17T15:42:00;25.50;45.80
43991;DHT22;29654;50.784;20.604;2022-10-17T15:47:11;25.30;46.10
43991;DHT22;29654;50.784;20.604;2022-10-17T15:52:25;25.00;46.40
43991;DHT22;29654;50.784;20.604;2022-10-17T15:57:36;24.80;46.60
43991;DHT22;29654;50.784;20.604;2022-10-17T16:02:46;24.50;46.80
43991;DHT22;29654;50.784;20.604;2022-10-17T16:07:52;24.30;47.20
43991;DHT22;29654;50.784;20.604;2022-10-17T16:12:58;24.00;47.20
43991;DHT22;29654;50.784;20.604;2022-10-17T16:18:13;23.80;47.40
43991;DHT22;29654;50.784;20.604;2022-10-17T16:23:21;23.60;47.70
43991;DHT22;29654;50.784;20.604;2022-10-17T16:28:30;23.40;47.50
43991;DHT22;29654;50.784;20.604;2022-10-17T16:33:45;23.30;48.10
43991;DHT22;29654;50.784;20.604;2022-10-17T16:38:54;23.20;48.40
43991;DHT22;29654;50.784;20.604;2022-10-17T16:44:03;23.00;48.60
43991;DHT22;29654;50.784;20.604;2022-10-17T16:49:17;22.90;49.00
43991;DHT22;29654;50.784;20.604;2022-10-17T16:54:25;22.80;49.10
43991;DHT22;29654;50.784;20.604;2022-10-17T16:59:43;22.80;49.30
43991;DHT22;29654;50.784;20.604;2022-10-17T17:04:50;22.70;49.00
43991;DHT22;29654;50.784;20.604;2022-10-17T17:09:54;22.60;49.20
43991;DHT22;29654;50.784;20.604;2022-10-17T17:15:03;22.50;49.10
43991;DHT22;29654;50.784;20.604;2022-10-17T17:20:19;22.40;49.20
43991;DHT22;29654;50.784;20.604;2022-10-17T17:25:33;22.20;49.20
43991;DHT22;29654;50.784;20.604;2022-10-17T17:30:36;22.10;49.60
43991;DHT22;29654;50.784;20.604;2022-10-17T17:35:43;21.90;49.30
43991;DHT22;29654;50.784;20.604;2022-10-17T17:40:46;21.70;49.30
43991;DHT22;29654;50.784;20.604;2022-10-17T17:45:52;21.50;49.30
43991;DHT22;29654;50.784;20.604;2022-10-17T17:51:02;21.40;49.60
43991;DHT22;29654;50.784;20.604;2022-10-17T17:56:12;21.20;50.00
43991;DHT22;29654;50.784;20.604;2022-10-17T18:01:18;21.10;50.00
43991;DHT22;29654;50.784;20.604;2022-10-17T18:06:28;20.90;50.20
43991;DHT22;29654;50.784;20.604;2022-10-17T18:11:32;20.70;50.30
43991;DHT22;29654;50.784;20.604;2022-10-17T18:16:36;20.60;50.40
43991;DHT22;29654;50.784;20.604;2022-10-17T18:21:43;20.50;51.00
43991;DHT22;29654;50.784;20.604;2022-10-17T18:26:47;20.30;50.40
43991;DHT22;29654;50.784;20.604;2022-10-17T18:31:51;20.20;50.70
43991;DHT22;29654;50.784;20.604;2022-10-17T18:36:55;20.10;50.90
43991;DHT22;29654;50.784;20.604;2022-10-17T18:41:59;20.00;51.40
43991;DHT22;29654;50.784;20.604;2022-10-17T18:47:02;19.90;51.40
43991;DHT22;29654;50.784;20.604;2022-10-17T18:52:07;19.90;51.60
43991;DHT22;29654;50.784;20.604;2022-10-17T18:57:12;19.90;51.90
43991;DHT22;29654;50.784;20.604;2022-10-17T19:02:16;19.80;51.70
43991;DHT22;29654;50.784;20.604;2022-10-17T19:07:23;19.70;51.90
43991;DHT22;29654;50.784;20.604;2022-10-17T19:12:27;19.70;52.30
43991;DHT22;29654;50.784;20.604;2022-10-17T19:17:30;19.70;52.20
43991;DHT22;29654;50.784;20.604;2022-10-17T19:22:40;19.70;52.30
43991;DHT22;29654;50.784;20.604;2022-10-17T19:27:43;19.70;52.70
43991;DHT22;29654;50.784;20.604;2022-10-17T19:32:49;19.60;52.20
43991;DHT22;29654;50.784;20.604;2022-10-17T19:37:56;19.60;52.40
43991;DHT22;29654;50.784;20.604;2022-10-17T19:43:01;19.50;52.40
43991;DHT22;29654;50.784;20.604;2022-10-17T19:48:04;19.40;52.20
43991;DHT22;29654;50.784;20.604;2022-10-17T19:53:11;19.40;52.40
43991;DHT22;29654;50.784;20.604;2022-10-17T19:58:16;19.30;52.20
43991;DHT22;29654;50.784;20.604;2022-10-17T20:03:20;19.20;52.10
43991;DHT22;29654;50.784;20.604;2022-10-17T20:08:26;19.10;52.20
43991;DHT22;29654;50.784;20.604;2022-10-17T20:13:29;18.90;52.50
43991;DHT22;29654;50.784;20.604;2022-10-17T20:18:32;18.90;52.80
43991;DHT22;29654;50.784;20.604;2022-10-17T20:23:39;18.80;52.90
43991;DHT22;29654;50.784;20.604;2022-10-17T20:28:44;18.70;52.90
43991;DHT22;29654;50.784;20.604;2022-10-17T20:33:47;18.70;53.00
43991;DHT22;29654;50.784;20.604;2022-10-17T20:38:56;18.60;52.90
43991;DHT22;29654;50.784;20.604;2022-10-17T20:44:00;18.50;53.30
43991;DHT22;29654;50.784;20.604;2022-10-17T20:49:05;18.50;53.40
43991;DHT22;29654;50.784;20.604;2022-10-17T20:54:12;18.40;53.80
43991;DHT22;29654;50.784;20.604;2022-10-17T20:59:18;18.40;54.30
43991;DHT22;29654;50.784;20.604;2022-10-17T21:04:23;18.40;53.90
43991;DHT22;29654;50.784;20.604;2022-10-17T21:09:29;18.40;54.00
43991;DHT22;29654;50.784;20.604;2022-10-17T21:14:33;18.30;54.20
43991;DHT22;29654;50.784;20.604;2022-10-17T21:19:37;18.30;54.10
43991;DHT22;29654;50.784;20.604;2022-10-17T21:24:48;18.20;54.10
43991;DHT22;29654;50.784;20.604;2022-10-17T21:29:51;18.20;54.30
43991;DHT22;29654;50.784;20.604;2022-10-17T21:34:54;18.10;54.00
43991;DHT22;29654;50.784;20.604;2022-10-17T21:39:58;18.10;54.70
43991;DHT22;29654;50.784;20.604;2022-10-17T21:45:01;18.00;54.20
43991;DHT22;29654;50.784;20.604;2022-10-17T21:50:05;18.00;54.10
43991;DHT22;29654;50.784;20.604;2022-10-17T21:55:09;17.90;54.10
43991;DHT22;29654;50.784;20.604;2022-10-17T22:00:12;17.90;54.30
43991;DHT22;29654;50.784;20.604;2022-10-17T22:05:16;17.80;54.30
43991;DHT22;29654;50.784;20.604;2022-10-17T22:10:20;17.80;54.30
43991;DHT22;29654;50.784;20.604;2022-10-17T22:15:23;17.70;54.30
43991;DHT22;29654;50.784;20.604;2022-10-17T22:20:27;17.70;54.30
43991;DHT22;29654;50.784;20.604;2022-10-17T22:25:31;17.60;54.20
43991;DHT22;29654;50.784;20.604;2022-10-17T22:30:34;17.50;54.00
43991;DHT22;29654;50.784;20.604;2022-10-17T22:35:37;17.40;53.80
43991;DHT22;29654;50.784;20.604;2022-10-17T22:40:42;17.30;53.80
43991;DHT22;29654;50.784;20.604;2022-10-17T22:45:51;17.20;54.00
43991;DHT22;29654;50.784;20.604;2022-10-17T22:50:54;17.10;54.00
43991;DHT22;29654;50.784;20.604;2022-10-17T22:56:02;17.00;54.00
43991;DHT22;29654;50.784;20.604;2022-10-17T23:01:08;16.90;54.20
43991;DHT22;29654;50.784;20.604;2022-10-17T23:06:12;16.90;54.00
43991;DHT22;29654;50.784;20.604;2022-10-17T23:11:17;16.80;53.80
43991;DHT22;29654;50.784;20.604;2022-10-17T23:16:20;16.70;53.80
43991;DHT22;29654;50.784;20.604;2022-10-17T23:21:23;16.60;53.80
43991;DHT22;29654;50.784;20.604;2022-10-17T23:26:27;16.50;54.00
43991;DHT22;29654;50.784;20.604;2022-10-17T23:31:30;16.40;54.40
43991;DHT22;29654;50.784;20.604;2022-10-17T23:36:32;16.40;54.60
43991;DHT22;29654;50.784;20.604;2022-10-17T23:41:37;16.40;54.50
43991;DHT22;29654;50.784;20.604;2022-10-17T23:46:40;16.30;54.40
43991;DHT22;29654;50.784;20.604;2022-10-17T23:51:43;16.20;54.20
43991;DHT22;29654;50.784;20.604;2022-10-17T23:56:47;16.20;54.00
